Terminal Aerodrome Forecast
Issued by NWS Melbourne, FL

Home | Current Version | Previous Version | Text Only | Print | Product List | Glossary On
Versions: 1 2 3 4 5 6 7 8 9 10 11 12 13 14 15 16 17 18 19 20 21 22 23 24 25 26 27 28 29 30 31 32 33 34 35
000
FTUS42 KMLB 242000 AAA
TAFMCO
TAF AMD
KMCO 242059Z 2421/2518 22009KT P6SM SCT050 BKN250
     FM250100 19004KT P6SM SCT040 BKN250
     FM250800 17003KT 4SM BR BKN008
     FM251500 19007KT P6SM VCSH BKN012=

USA.gov is the U.S. government's official web portal to all federal, state and local government web resources and services.